ALA477 UGTB-URSS
Flight info
| Callsign | ALA477 |
|---|---|
| Flight time | 1h 2m |
| Altitude | 34000 |
| Route | LAPTO N82 TAFIK/K0852F300 G914 NAMEN/K0830F280 G926 GUBOR G487 BINOL BINOL1K |
| Aircraft | B738/M-SDE2E3FGHIRWXY/LB1 |
Departure
| Time | 2026-05-07 11:31 |
|---|---|
| Airport | Tbilisi International Airport (UGTB) |
Arrival
| Time | 2026-05-07 12:34 |
|---|---|
| Airport | Sochi International Airport (URSS) |
| Time | Latitude | Longitude | Altitude | Speed | Heading |
|---|---|---|---|---|---|
| 2026-05-07 11:04 | 41.66971 | 44.96203 | 1582 ft | 0 kts | 43° |
| 2026-05-07 11:19 | 41.66961 | 44.96191 | 1581 ft | 2 kts | 43° |
| 2026-05-07 11:19 | 41.66951 | 44.96178 | 1580 ft | 2 kts | 43° |
| 2026-05-07 11:19 | 41.66940 | 44.96164 | 1579 ft | 1 kts | 43° |
| 2026-05-07 11:20 | 41.66932 | 44.96155 | 1578 ft | 2 kts | 31° |
| 2026-05-07 11:20 | 41.66917 | 44.96151 | 1577 ft | 2 kts | 351° |
| 2026-05-07 11:20 | 41.66904 | 44.96158 | 1576 ft | 1 kts | 318° |
| 2026-05-07 11:20 | 41.66900 | 44.96165 | 1576 ft | 1 kts | 308° |
| 2026-05-07 11:21 | 41.66898 | 44.96168 | 1576 ft | 0 kts | 311° |
| 2026-05-07 11:21 | 41.66898 | 44.96167 | 1576 ft | 0 kts | 311° |
| 2026-05-07 11:23 | 41.66899 | 44.96165 | 1576 ft | 0 kts | 312° |
| 2026-05-07 11:23 | 41.66911 | 44.96148 | 1577 ft | 4 kts | 313° |
| 2026-05-07 11:24 | 41.66941 | 44.96105 | 1578 ft | 8 kts | 313° |
| 2026-05-07 11:24 | 41.66989 | 44.96037 | 1579 ft | 10 kts | 313° |
| 2026-05-07 11:24 | 41.67040 | 44.95965 | 1580 ft | 9 kts | 313° |
| 2026-05-07 11:24 | 41.67081 | 44.95882 | 1579 ft | 12 kts | 306° |
| 2026-05-07 11:25 | 41.67137 | 44.95800 | 1580 ft | 10 kts | 314° |
| 2026-05-07 11:25 | 41.67182 | 44.95738 | 1581 ft | 8 kts | 314° |
| 2026-05-07 11:25 | 41.67220 | 44.95684 | 1583 ft | 9 kts | 314° |
| 2026-05-07 11:25 | 41.67276 | 44.95606 | 1583 ft | 13 kts | 314° |
| 2026-05-07 11:26 | 41.67353 | 44.95496 | 1584 ft | 18 kts | 313° |
| 2026-05-07 11:26 | 41.67432 | 44.95379 | 1590 ft | 14 kts | 310° |
| 2026-05-07 11:26 | 41.67488 | 44.95288 | 1594 ft | 10 kts | 311° |
| 2026-05-07 11:26 | 41.67540 | 44.95217 | 1596 ft | 10 kts | 313° |
| 2026-05-07 11:27 | 41.67593 | 44.95139 | 1599 ft | 11 kts | 313° |
| 2026-05-07 11:27 | 41.67651 | 44.95058 | 1602 ft | 12 kts | 310° |
| 2026-05-07 11:27 | 41.67659 | 44.94959 | 1600 ft | 12 kts | 252° |
| 2026-05-07 11:27 | 41.67624 | 44.94813 | 1595 ft | 18 kts | 253° |
| 2026-05-07 11:28 | 41.67589 | 44.94652 | 1590 ft | 13 kts | 253° |
| 2026-05-07 11:28 | 41.67585 | 44.94552 | 1589 ft | 10 kts | 306° |
| 2026-05-07 11:28 | 41.67629 | 44.94497 | 1593 ft | 7 kts | 319° |
| 2026-05-07 11:28 | 41.67665 | 44.94453 | 1595 ft | 7 kts | 316° |
| 2026-05-07 11:29 | 41.67713 | 44.94392 | 1596 ft | 11 kts | 316° |
| 2026-05-07 11:29 | 41.67783 | 44.94303 | 1598 ft | 16 kts | 316° |
| 2026-05-07 11:29 | 41.67839 | 44.94182 | 1597 ft | 9 kts | 274° |
| 2026-05-07 11:29 | 41.67838 | 44.94152 | 1595 ft | 3 kts | 262° |
| 2026-05-07 11:30 | 41.67823 | 44.94105 | 1593 ft | 7 kts | 242° |
| 2026-05-07 11:30 | 41.67786 | 44.94038 | 1588 ft | 7 kts | 221° |
| 2026-05-07 11:30 | 41.67758 | 44.94042 | 1587 ft | 0 kts | 135° |
| 2026-05-07 11:30 | 41.67752 | 44.94050 | 1587 ft | 2 kts | 135° |
| 2026-05-07 11:31 | 41.67679 | 44.94142 | 1586 ft | 44 kts | 137° |
| 2026-05-07 11:31 | 41.67271 | 44.94659 | 1571 ft | 116 kts | 136° |
| 2026-05-07 11:31 | 41.66524 | 44.95605 | 1568 ft | 174 kts | 138° |
| 2026-05-07 11:31 | 41.65614 | 44.96719 | 2265 ft | 175 kts | 138° |
| 2026-05-07 11:32 | 41.63791 | 44.98949 | 3465 ft | 192 kts | 137° |
| 2026-05-07 11:32 | 41.62777 | 45.00216 | 3935 ft | 206 kts | 135° |
| 2026-05-07 11:32 | 41.61655 | 45.01496 | 4391 ft | 222 kts | 149° |
| 2026-05-07 11:33 | 41.60131 | 45.02043 | 4858 ft | 238 kts | 181° |
| 2026-05-07 11:33 | 41.58487 | 45.01560 | 5393 ft | 250 kts | 204° |
| 2026-05-07 11:33 | 41.56979 | 45.00272 | 5944 ft | 263 kts | 224° |
| 2026-05-07 11:33 | 41.56001 | 44.98204 | 6420 ft | 275 kts | 256° |
| 2026-05-07 11:34 | 41.55946 | 44.95665 | 7127 ft | 279 kts | 283° |
| 2026-05-07 11:34 | 41.56718 | 44.93322 | 7989 ft | 278 kts | 304° |
| 2026-05-07 11:34 | 41.58139 | 44.91554 | 8719 ft | 283 kts | 332° |
| 2026-05-07 11:34 | 41.60059 | 44.90945 | 9392 ft | 289 kts | 358° |
| 2026-05-07 11:35 | 41.62056 | 44.91053 | 10176 ft | 290 kts | 5° |
| 2026-05-07 11:35 | 41.64097 | 44.91327 | 10666 ft | 303 kts | 5° |
| 2026-05-07 11:35 | 41.66297 | 44.91599 | 10989 ft | 323 kts | 4° |
| 2026-05-07 11:35 | 41.68583 | 44.91798 | 11445 ft | 338 kts | 2° |
| 2026-05-07 11:36 | 41.70962 | 44.91955 | 11937 ft | 351 kts | 2° |
| 2026-05-07 11:36 | 41.73420 | 44.92101 | 12704 ft | 355 kts | 1° |
| 2026-05-07 11:36 | 41.75892 | 44.92244 | 13540 ft | 357 kts | 1° |
| 2026-05-07 11:36 | 41.78368 | 44.92390 | 14269 ft | 363 kts | 1° |
| 2026-05-07 11:37 | 41.80916 | 44.92545 | 15062 ft | 367 kts | 1° |
| 2026-05-07 11:37 | 41.83483 | 44.92599 | 15851 ft | 370 kts | 356° |
| 2026-05-07 11:37 | 41.86032 | 44.92126 | 16625 ft | 372 kts | 343° |
| 2026-05-07 11:37 | 41.88388 | 44.90807 | 17377 ft | 373 kts | 329° |
| 2026-05-07 11:38 | 41.90594 | 44.88900 | 18087 ft | 377 kts | 324° |
| 2026-05-07 11:38 | 41.92716 | 44.86873 | 18758 ft | 382 kts | 323° |
| 2026-05-07 11:38 | 41.94899 | 44.84747 | 19460 ft | 386 kts | 323° |
| 2026-05-07 11:38 | 41.97065 | 44.82649 | 20175 ft | 389 kts | 323° |
| 2026-05-07 11:39 | 41.99279 | 44.80513 | 20916 ft | 392 kts | 323° |
| 2026-05-07 11:39 | 42.01491 | 44.78391 | 21553 ft | 396 kts | 323° |
| 2026-05-07 11:39 | 42.03762 | 44.76220 | 22221 ft | 401 kts | 323° |
| 2026-05-07 11:39 | 42.06031 | 44.74054 | 22859 ft | 404 kts | 323° |
| 2026-05-07 11:40 | 42.08320 | 44.71869 | 23487 ft | 408 kts | 323° |
| 2026-05-07 11:40 | 42.10647 | 44.69644 | 24076 ft | 412 kts | 323° |
| 2026-05-07 11:40 | 42.13002 | 44.67393 | 24621 ft | 416 kts | 323° |
| 2026-05-07 11:40 | 42.15388 | 44.65108 | 25156 ft | 420 kts | 323° |
| 2026-05-07 11:41 | 42.17771 | 44.62823 | 25653 ft | 424 kts | 322° |
| 2026-05-07 11:41 | 42.20182 | 44.60509 | 26153 ft | 427 kts | 322° |
| 2026-05-07 11:41 | 42.22621 | 44.58163 | 26611 ft | 431 kts | 322° |
| 2026-05-07 11:41 | 42.25044 | 44.55832 | 27070 ft | 434 kts | 322° |
| 2026-05-07 11:42 | 42.27523 | 44.53445 | 27538 ft | 437 kts | 322° |
| 2026-05-07 11:42 | 42.29997 | 44.51060 | 27971 ft | 441 kts | 322° |
| 2026-05-07 11:42 | 42.32515 | 44.48632 | 28386 ft | 444 kts | 322° |
| 2026-05-07 11:42 | 42.35065 | 44.46170 | 28863 ft | 447 kts | 322° |
| 2026-05-07 11:43 | 42.37587 | 44.43735 | 29272 ft | 450 kts | 322° |
| 2026-05-07 11:43 | 42.40179 | 44.41227 | 29716 ft | 453 kts | 322° |
| 2026-05-07 11:43 | 42.42716 | 44.38773 | 30384 ft | 448 kts | 322° |
| 2026-05-07 11:43 | 42.45259 | 44.36311 | 30927 ft | 447 kts | 322° |
| 2026-05-07 11:44 | 42.47796 | 44.33849 | 31248 ft | 450 kts | 322° |
| 2026-05-07 11:44 | 42.50334 | 44.31384 | 31620 ft | 450 kts | 321° |
| 2026-05-07 11:44 | 42.52883 | 44.28906 | 32049 ft | 448 kts | 322° |
| 2026-05-07 11:44 | 42.55407 | 44.26450 | 32424 ft | 447 kts | 321° |
| 2026-05-07 11:45 | 42.57945 | 44.24017 | 32757 ft | 448 kts | 323° |
| 2026-05-07 11:45 | 42.60538 | 44.21714 | 33139 ft | 447 kts | 327° |
| 2026-05-07 11:45 | 42.63273 | 44.19742 | 33551 ft | 447 kts | 333° |
| 2026-05-07 11:45 | 42.66170 | 44.18165 | 33926 ft | 447 kts | 339° |
| 2026-05-07 11:46 | 42.69136 | 44.16936 | 34085 ft | 452 kts | 343° |
| 2026-05-07 11:46 | 42.75269 | 44.14950 | 34110 ft | 449 kts | 346° |
| 2026-05-07 11:47 | 42.81352 | 44.13190 | 34114 ft | 448 kts | 346° |
| 2026-05-07 11:47 | 42.87432 | 44.11418 | 34121 ft | 449 kts | 346° |
| 2026-05-07 11:48 | 42.93505 | 44.09610 | 34145 ft | 446 kts | 346° |
| 2026-05-07 11:48 | 42.99592 | 44.07769 | 34161 ft | 448 kts | 346° |
| 2026-05-07 11:49 | 43.05645 | 44.05921 | 34162 ft | 446 kts | 346° |
| 2026-05-07 11:49 | 43.11712 | 44.04058 | 34170 ft | 446 kts | 346° |
| 2026-05-07 11:50 | 43.17757 | 44.02195 | 34158 ft | 446 kts | 346° |
| 2026-05-07 11:50 | 43.23821 | 44.00313 | 34158 ft | 448 kts | 346° |
| 2026-05-07 11:51 | 43.29869 | 43.98426 | 34148 ft | 447 kts | 346° |
| 2026-05-07 11:51 | 43.35889 | 43.96125 | 34148 ft | 446 kts | 337° |
| 2026-05-07 11:51 | 43.38608 | 43.94164 | 34148 ft | 447 kts | 325° |
| 2026-05-07 11:52 | 43.41027 | 43.91460 | 34146 ft | 447 kts | 315° |
| 2026-05-07 11:52 | 43.44870 | 43.84806 | 34126 ft | 446 kts | 300° |
| 2026-05-07 11:53 | 43.47628 | 43.77133 | 34115 ft | 447 kts | 292° |
| 2026-05-07 11:53 | 43.49943 | 43.69262 | 34112 ft | 445 kts | 288° |
| 2026-05-07 11:53 | 43.50682 | 43.65106 | 34124 ft | 443 kts | 277° |
| 2026-05-07 11:54 | 43.50898 | 43.60917 | 34130 ft | 444 kts | 269° |
| 2026-05-07 11:54 | 43.50551 | 43.52413 | 34119 ft | 447 kts | 264° |
| 2026-05-07 11:55 | 43.49910 | 43.43951 | 34138 ft | 446 kts | 263° |
| 2026-05-07 11:55 | 43.49222 | 43.35464 | 34147 ft | 445 kts | 263° |
| 2026-05-07 11:56 | 43.48531 | 43.27041 | 34183 ft | 443 kts | 262° |
| 2026-05-07 11:56 | 43.47848 | 43.18637 | 34162 ft | 445 kts | 262° |
| 2026-05-07 11:57 | 43.47167 | 43.10193 | 34160 ft | 445 kts | 263° |
| 2026-05-07 11:57 | 43.46537 | 43.01669 | 34151 ft | 445 kts | 265° |
| 2026-05-07 11:58 | 43.46615 | 42.93162 | 34141 ft | 445 kts | 274° |
| 2026-05-07 11:58 | 43.47190 | 42.84666 | 34144 ft | 448 kts | 275° |
| 2026-05-07 11:59 | 43.47849 | 42.76137 | 34156 ft | 449 kts | 276° |
| 2026-05-07 11:59 | 43.48479 | 42.67549 | 34149 ft | 451 kts | 275° |
| 2026-05-07 12:00 | 43.48967 | 42.58976 | 34148 ft | 450 kts | 274° |
| 2026-05-07 12:00 | 43.49386 | 42.50435 | 34147 ft | 450 kts | 274° |
| 2026-05-07 12:01 | 43.49796 | 42.41843 | 34156 ft | 449 kts | 274° |
| 2026-05-07 12:01 | 43.50205 | 42.33249 | 34167 ft | 449 kts | 274° |
| 2026-05-07 12:02 | 43.50612 | 42.24688 | 34167 ft | 450 kts | 274° |
| 2026-05-07 12:02 | 43.51016 | 42.16098 | 34167 ft | 449 kts | 274° |
| 2026-05-07 12:03 | 43.51413 | 42.07552 | 34149 ft | 449 kts | 274° |
| 2026-05-07 12:03 | 43.51804 | 41.98995 | 34142 ft | 448 kts | 274° |
| 2026-05-07 12:04 | 43.52204 | 41.90391 | 34155 ft | 456 kts | 275° |
| 2026-05-07 12:04 | 43.53232 | 41.81630 | 34159 ft | 469 kts | 287° |
| 2026-05-07 12:05 | 43.55049 | 41.72924 | 34180 ft | 483 kts | 282° |
| 2026-05-07 12:05 | 43.55953 | 41.63714 | 34181 ft | 484 kts | 277° |
| 2026-05-07 12:06 | 43.56573 | 41.54449 | 34149 ft | 484 kts | 277° |
| 2026-05-07 12:06 | 43.57250 | 41.45242 | 34154 ft | 483 kts | 278° |
| 2026-05-07 12:07 | 43.58021 | 41.36045 | 34147 ft | 484 kts | 278° |
| 2026-05-07 12:07 | 43.58846 | 41.26810 | 34143 ft | 479 kts | 278° |
| 2026-05-07 12:07 | 43.59244 | 41.22395 | 34146 ft | 462 kts | 278° |
| 2026-05-07 12:08 | 43.59637 | 41.18028 | 34020 ft | 451 kts | 278° |
| 2026-05-07 12:08 | 43.60020 | 41.13791 | 33685 ft | 448 kts | 278° |
| 2026-05-07 12:08 | 43.60408 | 41.09489 | 33226 ft | 448 kts | 279° |
| 2026-05-07 12:08 | 43.60791 | 41.05252 | 32723 ft | 450 kts | 279° |
| 2026-05-07 12:09 | 43.61174 | 41.00984 | 32124 ft | 452 kts | 279° |
| 2026-05-07 12:09 | 43.61559 | 40.96669 | 31508 ft | 453 kts | 279° |
| 2026-05-07 12:09 | 43.61943 | 40.92360 | 30934 ft | 452 kts | 279° |
| 2026-05-07 12:09 | 43.62322 | 40.88093 | 30303 ft | 451 kts | 279° |
| 2026-05-07 12:10 | 43.62701 | 40.83793 | 29705 ft | 448 kts | 279° |
| 2026-05-07 12:10 | 43.63072 | 40.79564 | 29150 ft | 444 kts | 279° |
| 2026-05-07 12:10 | 43.63438 | 40.75376 | 28588 ft | 441 kts | 279° |
| 2026-05-07 12:10 | 43.63802 | 40.71192 | 28036 ft | 437 kts | 279° |
| 2026-05-07 12:11 | 43.64159 | 40.67064 | 27486 ft | 433 kts | 279° |
| 2026-05-07 12:11 | 43.64511 | 40.62972 | 26935 ft | 430 kts | 279° |
| 2026-05-07 12:11 | 43.64864 | 40.58861 | 26393 ft | 426 kts | 279° |
| 2026-05-07 12:11 | 43.65202 | 40.54880 | 25849 ft | 421 kts | 279° |
| 2026-05-07 12:12 | 43.65533 | 40.50927 | 25325 ft | 411 kts | 279° |
| 2026-05-07 12:12 | 43.65857 | 40.47067 | 24793 ft | 401 kts | 279° |
| 2026-05-07 12:12 | 43.66178 | 40.43266 | 24286 ft | 391 kts | 279° |
| 2026-05-07 12:12 | 43.66486 | 40.39616 | 23792 ft | 382 kts | 279° |
| 2026-05-07 12:13 | 43.66789 | 40.36001 | 23306 ft | 376 kts | 279° |
| 2026-05-07 12:13 | 43.67087 | 40.32450 | 22823 ft | 373 kts | 278° |
| 2026-05-07 12:13 | 43.67382 | 40.28923 | 22354 ft | 370 kts | 278° |
| 2026-05-07 12:13 | 43.67674 | 40.25393 | 21872 ft | 367 kts | 277° |
| 2026-05-07 12:14 | 43.67806 | 40.21900 | 21393 ft | 366 kts | 270° |
| 2026-05-07 12:14 | 43.67532 | 40.18448 | 20919 ft | 365 kts | 258° |
| 2026-05-07 12:14 | 43.66734 | 40.15147 | 20446 ft | 363 kts | 246° |
| 2026-05-07 12:14 | 43.65549 | 40.12111 | 20187 ft | 356 kts | 238° |
| 2026-05-07 12:15 | 43.64066 | 40.09356 | 20161 ft | 361 kts | 227° |
| 2026-05-07 12:15 | 43.62198 | 40.07061 | 20157 ft | 363 kts | 215° |
| 2026-05-07 12:15 | 43.60035 | 40.05273 | 20162 ft | 362 kts | 207° |
| 2026-05-07 12:15 | 43.57762 | 40.03739 | 20152 ft | 363 kts | 204° |
| 2026-05-07 12:16 | 43.55466 | 40.02305 | 19917 ft | 364 kts | 203° |
| 2026-05-07 12:16 | 43.53175 | 40.00910 | 19672 ft | 359 kts | 203° |
| 2026-05-07 12:16 | 43.50953 | 39.99560 | 19422 ft | 357 kts | 203° |
| 2026-05-07 12:16 | 43.48693 | 39.98180 | 19164 ft | 355 kts | 203° |
| 2026-05-07 12:17 | 43.46434 | 39.96791 | 18905 ft | 354 kts | 204° |
| 2026-05-07 12:17 | 43.44172 | 39.95484 | 18646 ft | 352 kts | 200° |
| 2026-05-07 12:17 | 43.41860 | 39.94367 | 18370 ft | 346 kts | 197° |
| 2026-05-07 12:17 | 43.39611 | 39.93384 | 17994 ft | 342 kts | 197° |
| 2026-05-07 12:18 | 43.37325 | 39.92408 | 17545 ft | 340 kts | 197° |
| 2026-05-07 12:18 | 43.35078 | 39.91436 | 17095 ft | 339 kts | 197° |
| 2026-05-07 12:18 | 43.32845 | 39.90448 | 16646 ft | 337 kts | 198° |
| 2026-05-07 12:18 | 43.30620 | 39.89448 | 16213 ft | 336 kts | 198° |
| 2026-05-07 12:19 | 43.28424 | 39.88452 | 15759 ft | 334 kts | 198° |
| 2026-05-07 12:19 | 43.26231 | 39.87455 | 15318 ft | 333 kts | 198° |
| 2026-05-07 12:19 | 43.24023 | 39.86453 | 14883 ft | 331 kts | 198° |
| 2026-05-07 12:19 | 43.21837 | 39.85461 | 14436 ft | 330 kts | 198° |
| 2026-05-07 12:20 | 43.19664 | 39.84478 | 13998 ft | 329 kts | 198° |
| 2026-05-07 12:20 | 43.17530 | 39.83512 | 13576 ft | 327 kts | 198° |
| 2026-05-07 12:20 | 43.15358 | 39.82529 | 13124 ft | 326 kts | 198° |
| 2026-05-07 12:20 | 43.13218 | 39.81562 | 12688 ft | 325 kts | 198° |
| 2026-05-07 12:21 | 43.11074 | 39.80594 | 12246 ft | 323 kts | 198° |
| 2026-05-07 12:21 | 43.08986 | 39.79497 | 11789 ft | 322 kts | 206° |
| 2026-05-07 12:21 | 43.07169 | 39.77756 | 11378 ft | 319 kts | 227° |
| 2026-05-07 12:21 | 43.05996 | 39.75194 | 10843 ft | 321 kts | 250° |
| 2026-05-07 12:22 | 43.05589 | 39.72219 | 10323 ft | 320 kts | 269° |
| 2026-05-07 12:22 | 43.05746 | 39.69239 | 10105 ft | 309 kts | 281° |
| 2026-05-07 12:22 | 43.06253 | 39.66451 | 9925 ft | 299 kts | 288° |
| 2026-05-07 12:22 | 43.06902 | 39.63759 | 9525 ft | 297 kts | 290° |
| 2026-05-07 12:23 | 43.07570 | 39.61116 | 9150 ft | 294 kts | 290° |
| 2026-05-07 12:23 | 43.08218 | 39.58481 | 8776 ft | 292 kts | 289° |
| 2026-05-07 12:23 | 43.08840 | 39.55861 | 8421 ft | 289 kts | 289° |
| 2026-05-07 12:23 | 43.09452 | 39.53234 | 8063 ft | 287 kts | 289° |
| 2026-05-07 12:24 | 43.10080 | 39.50673 | 7711 ft | 284 kts | 293° |
| 2026-05-07 12:24 | 43.11020 | 39.48350 | 7362 ft | 279 kts | 312° |
| 2026-05-07 12:24 | 43.12565 | 39.46849 | 7030 ft | 273 kts | 341° |
| 2026-05-07 12:24 | 43.14410 | 39.46462 | 6703 ft | 268 kts | 2° |
| 2026-05-07 12:25 | 43.16275 | 39.46701 | 6359 ft | 265 kts | 9° |
| 2026-05-07 12:25 | 43.18010 | 39.47465 | 6037 ft | 262 kts | 31° |
| 2026-05-07 12:25 | 43.19266 | 39.49193 | 5976 ft | 255 kts | 58° |
| 2026-05-07 12:25 | 43.19951 | 39.51431 | 5944 ft | 259 kts | 71° |
| 2026-05-07 12:26 | 43.20502 | 39.53804 | 5607 ft | 263 kts | 71° |
| 2026-05-07 12:26 | 43.21052 | 39.56217 | 5234 ft | 262 kts | 72° |
| 2026-05-07 12:26 | 43.21584 | 39.58556 | 5124 ft | 251 kts | 72° |
| 2026-05-07 12:26 | 43.22093 | 39.60777 | 5063 ft | 239 kts | 71° |
| 2026-05-07 12:27 | 43.22582 | 39.62896 | 4990 ft | 229 kts | 71° |
| 2026-05-07 12:27 | 43.23055 | 39.64939 | 4870 ft | 223 kts | 71° |
| 2026-05-07 12:27 | 43.23523 | 39.66958 | 4604 ft | 222 kts | 71° |
| 2026-05-07 12:27 | 43.23989 | 39.68969 | 4356 ft | 220 kts | 71° |
| 2026-05-07 12:28 | 43.24453 | 39.70974 | 4118 ft | 218 kts | 71° |
| 2026-05-07 12:28 | 43.24916 | 39.72961 | 3885 ft | 217 kts | 71° |
| 2026-05-07 12:28 | 43.25376 | 39.74937 | 3646 ft | 216 kts | 71° |
| 2026-05-07 12:28 | 43.25827 | 39.76893 | 3419 ft | 215 kts | 71° |
| 2026-05-07 12:29 | 43.26274 | 39.78829 | 3205 ft | 212 kts | 71° |
| 2026-05-07 12:29 | 43.26715 | 39.80709 | 3049 ft | 202 kts | 68° |
| 2026-05-07 12:29 | 43.27368 | 39.82340 | 2923 ft | 187 kts | 45° |
| 2026-05-07 12:29 | 43.28396 | 39.83272 | 2792 ft | 174 kts | 25° |
| 2026-05-07 12:30 | 43.29461 | 39.84016 | 2655 ft | 169 kts | 27° |
| 2026-05-07 12:30 | 43.30494 | 39.84795 | 2492 ft | 169 kts | 28° |
| 2026-05-07 12:30 | 43.31524 | 39.85568 | 2332 ft | 168 kts | 27° |
| 2026-05-07 12:30 | 43.32550 | 39.86336 | 2181 ft | 169 kts | 27° |
| 2026-05-07 12:31 | 43.33581 | 39.87106 | 2034 ft | 168 kts | 27° |
| 2026-05-07 12:31 | 43.34604 | 39.87870 | 1969 ft | 166 kts | 27° |
| 2026-05-07 12:31 | 43.35634 | 39.88638 | 1717 ft | 168 kts | 27° |
| 2026-05-07 12:31 | 43.36649 | 39.89397 | 1496 ft | 161 kts | 27° |
| 2026-05-07 12:32 | 43.37603 | 39.90111 | 1281 ft | 153 kts | 27° |
| 2026-05-07 12:32 | 43.38530 | 39.90804 | 1112 ft | 152 kts | 27° |
| 2026-05-07 12:32 | 43.39474 | 39.91509 | 904 ft | 152 kts | 27° |
| 2026-05-07 12:32 | 43.40397 | 39.92199 | 707 ft | 152 kts | 27° |
| 2026-05-07 12:33 | 43.42233 | 39.93570 | 341 ft | 150 kts | 26° |
| 2026-05-07 12:33 | 43.43178 | 39.94266 | 133 ft | 157 kts | 26° |
| 2026-05-07 12:33 | 43.44073 | 39.94935 | 55 ft | 127 kts | 29° |
| 2026-05-07 12:34 | 43.44647 | 39.95367 | 62 ft | 62 kts | 27° |
| 2026-05-07 12:34 | 43.45000 | 39.95634 | 68 ft | 51 kts | 28° |
| 2026-05-07 12:34 | 43.45206 | 39.95789 | 72 ft | 22 kts | 29° |
| 2026-05-07 12:34 | 43.45288 | 39.95814 | 73 ft | 10 kts | 269° |
| 2026-05-07 12:35 | 43.45264 | 39.95723 | 73 ft | 9 kts | 240° |
| 2026-05-07 12:35 | 43.45228 | 39.95641 | 72 ft | 10 kts | 239° |
| 2026-05-07 12:35 | 43.45177 | 39.95534 | 71 ft | 17 kts | 236° |
| 2026-05-07 12:35 | 43.45102 | 39.95378 | 67 ft | 17 kts | 244° |
| 2026-05-07 12:36 | 43.45035 | 39.95183 | 62 ft | 21 kts | 245° |
| 2026-05-07 12:36 | 43.44963 | 39.95027 | 61 ft | 21 kts | 242° |
| 2026-05-07 12:36 | 43.44912 | 39.94879 | 58 ft | 12 kts | 245° |
| 2026-05-07 12:36 | 43.44864 | 39.94742 | 58 ft | 17 kts | 245° |
| 2026-05-07 12:37 | 43.44819 | 39.94608 | 57 ft | 11 kts | 244° |
| 2026-05-07 12:37 | 43.44809 | 39.94539 | 57 ft | 4 kts | 293° |
| 2026-05-07 12:37 | 43.44828 | 39.94513 | 58 ft | 3 kts | 325° |
| 2026-05-07 12:37 | 43.44844 | 39.94501 | 58 ft | 2 kts | 334° |
| 2026-05-07 12:38 | 43.44855 | 39.94494 | 58 ft | 1 kts | 335° |
| 2026-05-07 12:38 | 43.44858 | 39.94493 | 58 ft | 0 kts | 334° |